sensor_id;sensor_type;location;lat;lon;timestamp;temperature;humidity
28654;DHT22;24320;56.980;24.336;2022-08-06T05:02:08;26.50;99.90
28654;DHT22;24320;56.980;24.336;2022-08-06T05:04:37;26.50;99.90
28654;DHT22;24320;56.980;24.336;2022-08-06T05:09:36;26.80;99.90
28654;DHT22;24320;56.980;24.336;2022-08-06T05:12:32;26.90;99.90
28654;DHT22;24320;56.980;24.336;2022-08-06T05:17:29;27.40;99.90
28654;DHT22;24320;56.980;24.336;2022-08-06T05:20:15;27.80;99.90
28654;DHT22;24320;56.980;24.336;2022-08-06T05:23:17;28.10;99.90
28654;DHT22;24320;56.980;24.336;2022-08-06T05:25:47;28.20;99.90
28654;DHT22;24320;56.980;24.336;2022-08-06T05:28:20;27.80;99.90
28654;DHT22;24320;56.980;24.336;2022-08-06T05:30:53;27.40;99.90
28654;DHT22;24320;56.980;24.336;2022-08-06T05:33:33;27.00;99.90
28654;DHT22;24320;56.980;24.336;2022-08-06T05:36:08;27.00;99.90
28654;DHT22;24320;56.980;24.336;2022-08-06T05:38:45;26.80;99.90
28654;DHT22;24320;56.980;24.336;2022-08-06T05:41:25;26.80;99.90
28654;DHT22;24320;56.980;24.336;2022-08-06T05:43:55;26.60;99.90
28654;DHT22;24320;56.980;24.336;2022-08-06T05:46:37;26.20;99.90
28654;DHT22;24320;56.980;24.336;2022-08-06T05:49:09;25.80;99.90
28654;DHT22;24320;56.980;24.336;2022-08-06T05:52:09;25.60;99.90
28654;DHT22;24320;56.980;24.336;2022-08-06T05:57:18;27.00;99.90
28654;DHT22;24320;56.980;24.336;2022-08-06T06:02:57;27.90;99.90
28654;DHT22;24320;56.980;24.336;2022-08-06T06:05:28;28.20;99.90
28654;DHT22;24320;56.980;24.336;2022-08-06T06:08:16;28.00;99.90
28654;DHT22;24320;56.980;24.336;2022-08-06T06:11:05;27.60;99.90
28654;DHT22;24320;56.980;24.336;2022-08-06T06:13:36;27.30;99.90
28654;DHT22;24320;56.980;24.336;2022-08-06T06:22:02;26.30;99.90
28654;DHT22;24320;56.980;24.336;2022-08-06T06:24:54;25.60;99.90
28654;DHT22;24320;56.980;24.336;2022-08-06T06:27:19;25.10;99.90
28654;DHT22;24320;56.980;24.336;2022-08-06T06:30:10;24.70;99.90
28654;DHT22;24320;56.980;24.336;2022-08-06T06:41:01;23.20;99.90
28654;DHT22;24320;56.980;24.336;2022-08-06T06:43:52;23.00;99.90
28654;DHT22;24320;56.980;24.336;2022-08-06T06:49:18;22.70;99.90
28654;DHT22;24320;56.980;24.336;2022-08-06T06:52:08;22.50;99.90
28654;DHT22;24320;56.980;24.336;2022-08-06T06:54:39;22.30;99.90
28654;DHT22;24320;56.980;24.336;2022-08-06T06:57:09;22.20;99.90
28654;DHT22;24320;56.980;24.336;2022-08-06T06:59:37;22.10;99.90
28654;DHT22;24320;56.980;24.336;2022-08-06T07:02:25;22.10;99.90
28654;DHT22;24320;56.980;24.336;2022-08-06T07:04:55;21.90;99.90
28654;DHT22;24320;56.980;24.336;2022-08-06T07:07:25;21.70;99.90
28654;DHT22;24320;56.980;24.336;2022-08-06T07:09:53;21.50;99.90
28654;DHT22;24320;56.980;24.336;2022-08-06T07:12:28;21.50;99.90
28654;DHT22;24320;56.980;24.336;2022-08-06T07:15:00;21.40;99.90
28654;DHT22;24320;56.980;24.336;2022-08-06T07:17:28;21.50;99.90
28654;DHT22;24320;56.980;24.336;2022-08-06T07:20:14;21.40;99.90
28654;DHT22;24320;56.980;24.336;2022-08-06T07:22:43;21.60;99.90
28654;DHT22;24320;56.980;24.336;2022-08-06T07:25:30;21.70;99.90
28654;DHT22;24320;56.980;24.336;2022-08-06T07:28:05;21.70;99.90
28654;DHT22;24320;56.980;24.336;2022-08-06T23:27:15;11.60;99.90
28654;DHT22;24320;56.980;24.336;2022-08-06T23:29:42;11.60;99.90
28654;DHT22;24320;56.980;24.336;2022-08-06T23:32:30;11.60;99.90
28654;DHT22;24320;56.980;24.336;2022-08-06T23:35:01;11.60;99.90
28654;DHT22;24320;56.980;24.336;2022-08-06T23:37:33;11.50;99.90
28654;DHT22;24320;56.980;24.336;2022-08-06T23:40:05;11.60;99.90
28654;DHT22;24320;56.980;24.336;2022-08-06T23:42:45;11.60;99.90
28654;DHT22;24320;56.980;24.336;2022-08-06T23:45:17;11.60;99.90
28654;DHT22;24320;56.980;24.336;2022-08-06T23:47:46;11.60;99.90
28654;DHT22;24320;56.980;24.336;2022-08-06T23:50:22;11.60;99.90
28654;DHT22;24320;56.980;24.336;2022-08-06T23:52:59;11.60;99.90
28654;DHT22;24320;56.980;24.336;2022-08-06T23:55:32;11.50;99.90
28654;DHT22;24320;56.980;24.336;2022-08-06T23:58:06;11.50;99.90
